createdAt,value
2022-10-09T00:46:36.365Z,23.00
2022-10-09T00:49:27.163Z,23.10
2022-10-09T00:51:59.220Z,23.10
2022-10-09T00:54:34.374Z,23.10
2022-10-09T00:57:03.534Z,23.10
2022-10-09T00:59:33.054Z,23.00
2022-10-09T01:46:28.337Z,23.00
2022-10-09T01:49:13.896Z,22.90
2022-10-09T01:51:51.919Z,23.00
2022-10-09T01:54:29.595Z,23.00
2022-10-09T01:57:04.040Z,23.00
2022-10-09T01:59:35.249Z,23.00
2022-10-09T02:46:25.592Z,22.90
2022-10-09T02:48:54.469Z,22.90
2022-10-09T02:51:23.148Z,22.90
2022-10-09T02:53:54.223Z,22.90
2022-10-09T02:56:23.629Z,22.90
2022-10-09T02:58:52.659Z,22.90
2022-10-09T03:45:43.823Z,22.90
2022-10-09T03:48:14.283Z,22.90
2022-10-09T03:50:44.309Z,22.90
2022-10-09T03:53:17.423Z,22.90
2022-10-09T03:55:46.097Z,22.90
2022-10-09T03:58:14.768Z,22.90
2022-10-09T04:32:38.908Z,22.90
2022-10-09T04:35:08.307Z,22.90
2022-10-09T04:37:36.807Z,22.90
2022-10-09T04:40:05.739Z,22.90
2022-10-09T04:42:33.857Z,22.90
2022-10-09T04:45:02.217Z,22.90
2022-10-09T04:47:31.122Z,22.80
2022-10-09T04:50:00.959Z,22.80
2022-10-09T04:52:29.275Z,22.90
2022-10-09T04:54:57.575Z,22.80
2022-10-09T04:57:25.779Z,22.70
2022-10-09T04:59:53.875Z,22.80
2022-10-09T05:02:22.270Z,22.80
2022-10-09T05:04:50.836Z,22.80
2022-10-09T05:07:20.288Z,23.00
2022-10-09T05:09:48.854Z,22.90
2022-10-09T05:12:17.389Z,22.90
2022-10-09T05:14:45.753Z,22.90
2022-10-09T05:17:15.061Z,22.90
2022-10-09T05:19:45.228Z,22.90
2022-10-09T05:22:13.523Z,22.80
2022-10-09T05:24:43.065Z,22.90
2022-10-09T05:27:12.342Z,22.70
2022-10-09T05:29:41.077Z,22.90
2022-10-09T05:32:09.979Z,23.20
2022-10-09T05:34:38.889Z,22.90
2022-10-09T05:37:07.846Z,22.80
2022-10-09T05:39:38.283Z,22.90
2022-10-09T05:42:10.361Z,22.80
2022-10-09T05:44:38.820Z,22.90
2022-10-09T05:47:07.230Z,22.90
2022-10-09T05:49:36.769Z,22.70
2022-10-09T05:52:05.546Z,22.90
2022-10-09T05:54:33.782Z,22.90
2022-10-09T05:57:01.951Z,22.90
2022-10-09T05:59:31.638Z,22.90
2022-10-09T06:02:00.819Z,22.80
2022-10-09T06:04:29.786Z,22.90
2022-10-09T06:06:57.970Z,22.90
2022-10-09T06:09:27.394Z,22.80
2022-10-09T06:11:56.477Z,22.90
2022-10-09T06:14:26.115Z,22.90
2022-10-09T06:16:55.705Z,22.80
2022-10-09T06:19:24.835Z,22.90
2022-10-09T06:21:53.185Z,22.90
2022-10-09T06:24:28.229Z,23.00
2022-10-09T06:26:57.516Z,22.90
2022-10-09T06:29:26.072Z,22.90
2022-10-09T06:31:55.746Z,22.90
2022-10-09T06:34:24.938Z,22.80
2022-10-09T06:36:53.661Z,22.80
2022-10-09T06:39:22.543Z,22.90
2022-10-09T06:41:50.775Z,22.80
2022-10-09T06:44:33.184Z,22.80
2022-10-09T06:47:02.855Z,22.80
2022-10-09T06:49:31.180Z,22.80
2022-10-09T06:51:59.378Z,22.80
2022-10-09T06:54:27.701Z,22.80
2022-10-09T06:56:56.449Z,22.90
2022-10-09T06:59:25.013Z,22.90
2022-10-09T07:01:53.632Z,22.80
2022-10-09T07:04:24.192Z,22.80
2022-10-09T07:06:52.890Z,22.80
2022-10-09T07:09:21.197Z,22.70
2022-10-09T07:11:50.073Z,22.70
2022-10-09T07:14:18.818Z,22.80
2022-10-09T07:16:49.779Z,22.80
2022-10-09T07:19:19.706Z,22.80
2022-10-09T07:21:51.139Z,22.80
2022-10-09T07:24:21.236Z,23.10
2022-10-09T07:26:49.985Z,22.90
2022-10-09T07:29:20.306Z,22.90
2022-10-09T07:31:49.917Z,22.90
2022-10-09T07:34:18.466Z,22.90
2022-10-09T07:36:48.243Z,22.90
2022-10-09T07:39:19.037Z,22.90
2022-10-09T07:41:47.742Z,22.90
2022-10-09T07:44:16.649Z,22.90
2022-10-09T07:46:44.983Z,22.90
2022-10-09T07:49:33.810Z,22.90
2022-10-09T07:52:27.735Z,22.90
2022-10-09T07:55:13.204Z,22.90
2022-10-09T07:57:59.458Z,22.90
2022-10-09T08:00:44.108Z,22.90
2022-10-09T08:03:26.346Z,22.80
2022-10-09T08:06:06.296Z,22.80
2022-10-09T08:08:48.638Z,22.80
2022-10-09T08:11:28.010Z,22.80
2022-10-09T08:14:07.526Z,22.80
2022-10-09T08:16:44.273Z,22.80
2022-10-09T08:19:24.229Z,22.80
2022-10-09T08:21:52.748Z,22.80
2022-10-09T08:24:22.295Z,22.80
2022-10-09T08:26:50.546Z,22.80
2022-10-09T08:29:44.575Z,22.90
2022-10-09T08:32:12.872Z,22.80
2022-10-09T08:34:41.538Z,22.80
2022-10-09T08:37:09.989Z,22.80
2022-10-09T08:39:39.642Z,22.80
2022-10-09T08:42:29.511Z,22.80
2022-10-09T08:45:09.944Z,22.70
2022-10-09T08:47:59.945Z,22.70
2022-10-09T08:50:47.115Z,22.70
2022-10-09T08:53:42.042Z,22.70
2022-10-09T08:56:25.872Z,22.70
2022-10-09T08:59:02.777Z,22.70
2022-10-09T09:01:50.093Z,22.70
2022-10-09T09:05:01.741Z,22.70
2022-10-09T09:07:50.783Z,22.70
2022-10-09T09:10:41.059Z,22.80
2022-10-09T09:13:42.206Z,22.80
2022-10-09T09:16:32.367Z,22.80
2022-10-09T09:19:39.022Z,22.90
2022-10-09T09:22:24.450Z,22.80
2022-10-09T09:25:10.885Z,22.80
2022-10-09T09:27:53.750Z,22.90
2022-10-09T09:30:30.531Z,22.90
2022-10-09T09:33:08.639Z,22.80
2022-10-09T09:35:49.566Z,23.00
2022-10-09T09:38:18.221Z,22.90
2022-10-09T09:40:47.531Z,22.90
2022-10-09T09:43:20.672Z,22.90
2022-10-09T09:45:54.672Z,22.90
2022-10-09T09:48:35.725Z,22.90
2022-10-09T09:51:27.549Z,22.80
2022-10-09T09:54:00.513Z,22.90
2022-10-09T09:59:57.053Z,22.90
2022-10-09T10:02:49.298Z,23.00
2022-10-09T10:05:25.835Z,22.90
2022-10-09T10:07:57.587Z,23.00
2022-10-09T10:10:29.591Z,23.00
2022-10-09T10:13:02.030Z,22.90
2022-10-09T10:15:33.532Z,23.00
2022-10-09T10:18:35.928Z,23.00
2022-10-09T10:21:22.691Z,23.00
2022-10-09T10:24:06.726Z,23.00
2022-10-09T10:26:56.624Z,23.00
2022-10-09T10:29:44.196Z,23.00
2022-10-09T10:32:21.864Z,23.00
2022-10-09T10:35:01.680Z,23.00
2022-10-09T10:37:40.361Z,23.00
2022-10-09T10:40:20.177Z,23.00
2022-10-09T10:43:02.744Z,23.00
2022-10-09T10:45:41.032Z,22.90
2022-10-09T10:48:17.973Z,23.30
2022-10-09T10:51:11.744Z,22.90
2022-10-09T10:54:00.695Z,22.80
2022-10-09T10:56:35.311Z,22.80
2022-10-09T10:59:29.235Z,22.90
2022-10-09T11:02:22.353Z,23.20
2022-10-09T11:05:00.031Z,22.90
2022-10-09T11:07:38.726Z,22.90
2022-10-09T11:10:19.440Z,22.80
2022-10-09T11:12:59.329Z,22.80
2022-10-09T11:15:43.924Z,22.80
2022-10-09T11:18:31.565Z,22.80
2022-10-09T11:21:20.399Z,22.80
2022-10-09T11:24:11.899Z,22.80
2022-10-09T11:26:50.828Z,22.80
2022-10-09T11:29:27.819Z,22.80
2022-10-09T11:32:04.686Z,22.80
2022-10-09T11:34:40.378Z,22.80
2022-10-09T11:37:16.904Z,22.80
2022-10-09T11:39:49.429Z,22.80
2022-10-09T11:42:23.809Z,22.80
2022-10-09T11:45:07.877Z,22.80
2022-10-09T11:47:47.093Z,22.80
2022-10-09T11:50:34.225Z,22.80
2022-10-09T11:53:10.132Z,22.80
2022-10-09T11:55:41.196Z,22.90
2022-10-09T11:58:23.726Z,22.90
2022-10-09T12:00:56.419Z,22.90
2022-10-09T12:03:34.911Z,22.90
2022-10-09T12:06:09.009Z,22.80
2022-10-09T12:08:40.356Z,22.80
2022-10-09T12:11:20.348Z,22.80
2022-10-09T12:13:53.837Z,22.80
2022-10-09T12:16:40.446Z,22.80
2022-10-09T12:19:23.600Z,22.80
2022-10-09T12:22:01.247Z,22.70
2022-10-09T12:24:39.328Z,22.70
2022-10-09T12:27:15.648Z,22.70
2022-10-09T12:29:49.719Z,22.70
2022-10-09T12:32:28.188Z,22.70
2022-10-09T12:34:58.218Z,22.70
2022-10-09T12:37:38.129Z,22.70
2022-10-09T12:40:19.436Z,22.70
2022-10-09T12:42:52.448Z,22.70
2022-10-09T12:45:26.580Z,22.70
2022-10-09T12:47:58.358Z,22.70
2022-10-09T12:50:32.639Z,22.70
2022-10-09T12:53:06.008Z,22.70
2022-10-09T12:55:41.645Z,22.70
2022-10-09T12:58:21.206Z,22.70
2022-10-09T13:00:53.371Z,22.70
2022-10-09T13:03:28.022Z,22.80
2022-10-09T13:05:58.815Z,22.90
2022-10-09T13:08:31.052Z,22.90
2022-10-09T13:11:12.003Z,22.90
2022-10-09T13:13:42.352Z,22.90
2022-10-09T13:16:11.736Z,22.90
2022-10-09T13:18:40.318Z,22.90
2022-10-09T13:21:29.003Z,23.10
2022-10-09T13:24:09.296Z,22.90
2022-10-09T13:26:40.946Z,22.90
2022-10-09T13:29:13.934Z,22.90
2022-10-09T13:31:45.534Z,23.30
2022-10-09T13:34:18.983Z,22.90
2022-10-09T13:36:48.048Z,22.90
2022-10-09T13:39:18.346Z,22.90
2022-10-09T13:41:52.859Z,22.90
2022-10-09T13:44:23.587Z,22.80
2022-10-09T13:46:52.956Z,22.90
2022-10-09T13:49:22.128Z,22.90
2022-10-09T13:51:51.985Z,22.90
2022-10-09T13:54:21.434Z,22.90
2022-10-09T13:56:50.342Z,22.90
2022-10-09T13:59:19.236Z,22.70
2022-10-09T14:01:50.201Z,22.90
2022-10-09T14:04:20.814Z,22.80
2022-10-09T14:06:49.972Z,22.80
2022-10-09T14:09:21.589Z,22.80
2022-10-09T14:11:52.006Z,22.80
2022-10-09T14:14:22.340Z,22.80
2022-10-09T14:16:52.253Z,22.80
2022-10-09T14:19:40.032Z,22.90
2022-10-09T14:22:08.675Z,22.90
2022-10-09T14:24:38.435Z,23.00
2022-10-09T14:27:06.844Z,22.90
2022-10-09T14:29:37.760Z,22.90
2022-10-09T14:32:09.493Z,22.90
2022-10-09T14:34:38.257Z,22.80
2022-10-09T14:37:18.589Z,22.90
2022-10-09T15:50:22.992Z,22.80
2022-10-09T15:52:51.535Z,22.80
2022-10-09T15:55:20.002Z,22.80
2022-10-09T15:57:48.727Z,22.90
2022-10-09T16:00:17.677Z,23.00
2022-10-09T16:02:46.309Z,22.80
2022-10-09T16:07:46.097Z,22.90
2022-10-09T16:10:14.616Z,22.90
2022-10-09T16:12:42.820Z,23.20
2022-10-09T16:15:12.484Z,23.10
2022-10-09T16:17:41.312Z,22.80
2022-10-09T16:20:10.908Z,22.80
2022-10-09T16:22:39.418Z,22.80
2022-10-09T16:25:10.647Z,22.90
2022-10-09T16:27:38.950Z,22.80
2022-10-09T16:30:12.030Z,22.80
2022-10-09T16:32:40.206Z,22.80
2022-10-09T16:35:09.935Z,22.80
2022-10-09T16:37:38.142Z,22.90
2022-10-09T16:40:09.147Z,22.90
2022-10-09T16:42:37.471Z,22.70
2022-10-09T16:45:07.030Z,23.20
2022-10-09T16:47:35.388Z,22.80
2022-10-09T16:50:04.167Z,22.60
2022-10-09T16:52:33.012Z,22.80
2022-10-09T16:55:02.431Z,22.80
2022-10-09T16:57:32.574Z,22.80
2022-10-09T17:00:03.564Z,22.80
2022-10-09T17:02:32.564Z,22.90
2022-10-09T17:05:01.070Z,22.80
2022-10-09T17:07:29.564Z,22.80
2022-10-09T17:09:57.994Z,22.80
2022-10-09T17:12:26.393Z,22.80
2022-10-09T17:14:57.826Z,22.90
2022-10-09T17:17:26.282Z,22.80
2022-10-09T17:19:54.608Z,22.90
2022-10-09T17:22:22.899Z,22.80
2022-10-09T17:24:51.418Z,22.80
2022-10-09T17:27:19.999Z,22.80
2022-10-09T17:29:49.254Z,23.00
2022-10-09T17:32:19.461Z,22.80
2022-10-09T17:34:48.119Z,22.90
2022-10-09T17:37:16.402Z,23.10
2022-10-09T17:39:48.555Z,22.90
2022-10-09T17:42:19.554Z,22.90
2022-10-09T17:44:48.087Z,22.90
2022-10-09T17:47:18.141Z,22.90
2022-10-09T17:49:46.540Z,22.90
2022-10-09T17:52:14.721Z,22.80
2022-10-09T17:54:43.024Z,23.60
2022-10-09T17:57:12.506Z,23.10
2022-10-09T17:59:41.074Z,23.00
2022-10-09T18:02:09.456Z,23.20
2022-10-09T18:04:39.249Z,23.30
2022-10-09T18:07:07.530Z,23.20
2022-10-09T18:09:36.879Z,23.30
2022-10-09T18:12:05.887Z,23.30
2022-10-09T18:14:36.077Z,23.30
2022-10-09T18:17:04.656Z,23.40
2022-10-09T18:19:33.880Z,23.20
2022-10-09T18:22:03.922Z,23.30
2022-10-09T18:24:32.514Z,23.60
2022-10-09T18:27:00.741Z,23.30
2022-10-09T18:29:28.978Z,23.30
2022-10-09T18:31:58.021Z,23.40
2022-10-09T18:34:28.143Z,23.60
2022-10-09T18:36:58.785Z,23.80
2022-10-09T18:39:28.957Z,24.20
2022-10-09T18:41:58.298Z,23.90
2022-10-09T18:44:27.063Z,24.30
2022-10-09T18:46:59.556Z,24.10
2022-10-09T18:49:32.023Z,23.80
2022-10-09T18:52:03.097Z,23.80
2022-10-09T18:54:32.857Z,23.70
2022-10-09T18:57:01.102Z,23.70
2022-10-09T18:59:29.595Z,24.00
2022-10-09T19:01:57.842Z,23.70
2022-10-09T19:04:26.213Z,24.20
2022-10-09T19:06:55.361Z,23.70
2022-10-09T19:09:23.890Z,23.60
2022-10-09T19:11:53.709Z,23.60
2022-10-09T19:14:22.708Z,23.50
2022-10-09T19:16:50.957Z,23.50
2022-10-09T19:19:19.927Z,23.40
2022-10-09T19:21:48.467Z,23.50
2022-10-09T19:24:16.736Z,23.50
2022-10-09T19:26:45.324Z,23.40
2022-10-09T19:29:15.485Z,23.40
2022-10-09T19:31:44.231Z,23.40
2022-10-09T19:34:12.621Z,23.40
2022-10-09T19:36:43.054Z,23.30
2022-10-09T19:39:11.560Z,23.30
2022-10-09T19:41:42.008Z,23.40
2022-10-09T19:44:11.658Z,23.30
2022-10-09T19:46:41.636Z,23.20
2022-10-09T19:49:10.326Z,23.30
2022-10-09T19:51:38.946Z,23.20
2022-10-09T19:54:09.068Z,23.20
2022-10-09T19:56:38.694Z,23.90
2022-10-09T19:59:09.933Z,23.40
2022-10-09T20:01:40.533Z,23.10
2022-10-09T20:04:11.815Z,23.10
2022-10-09T20:06:41.974Z,23.00
2022-10-09T20:09:11.515Z,23.10
2022-10-09T20:11:40.033Z,23.10
2022-10-09T20:14:09.767Z,23.10
2022-10-09T20:16:40.097Z,23.00
2022-10-09T20:19:08.986Z,23.10
2022-10-09T20:21:37.219Z,23.00
2022-10-09T20:24:06.179Z,23.00
2022-10-09T20:26:35.524Z,23.00
2022-10-09T20:29:07.083Z,23.10
2022-10-09T20:31:35.432Z,23.10
2022-10-09T20:34:06.226Z,23.00
2022-10-09T20:36:37.516Z,23.00
2022-10-09T20:39:08.438Z,23.10
2022-10-09T20:41:37.945Z,23.40
2022-10-09T20:44:06.604Z,23.10
2022-10-09T20:46:37.403Z,23.30
2022-10-09T20:49:11.424Z,23.10
2022-10-09T20:51:40.411Z,23.10
2022-10-09T20:54:14.450Z,23.10
2022-10-09T20:56:44.372Z,23.10
2022-10-09T20:59:13.737Z,23.20
2022-10-09T21:01:41.980Z,23.20
2022-10-09T21:04:12.421Z,23.20
2022-10-09T21:06:40.655Z,23.30
2022-10-09T21:09:09.116Z,23.30
2022-10-09T21:11:38.959Z,23.30
2022-10-09T21:14:07.587Z,23.30
2022-10-09T21:16:35.795Z,23.30
2022-10-09T21:19:05.605Z,23.30
2022-10-09T21:21:35.556Z,23.30
2022-10-09T21:24:04.031Z,23.30
2022-10-09T21:26:35.604Z,23.30
2022-10-09T21:29:05.280Z,23.30
2022-10-09T21:31:34.514Z,23.30
2022-10-09T21:34:03.372Z,23.30
2022-10-09T21:36:47.178Z,23.30
2022-10-09T21:39:26.491Z,23.30
2022-10-09T21:41:54.792Z,23.30
2022-10-09T21:44:23.103Z,23.10
2022-10-09T21:46:51.375Z,23.20
2022-10-09T21:49:22.777Z,23.40
2022-10-09T21:51:52.577Z,23.30
2022-10-09T21:54:21.904Z,23.30
2022-10-09T21:56:50.612Z,23.30
2022-10-09T21:59:18.787Z,23.30
2022-10-09T22:01:47.027Z,23.30
2022-10-09T22:04:15.408Z,23.20
2022-10-09T22:06:44.377Z,23.30
2022-10-09T22:09:14.116Z,23.30
2022-10-09T22:11:44.351Z,23.30
2022-10-09T22:14:12.467Z,23.30
2022-10-09T22:45:40.673Z,23.10
2022-10-09T22:48:09.254Z,23.10
2022-10-09T22:50:38.391Z,23.10
2022-10-09T22:53:06.627Z,23.10
2022-10-09T22:55:34.926Z,23.00
2022-10-09T22:58:03.122Z,23.10
2022-10-09T23:47:29.071Z,23.00
2022-10-09T23:49:57.434Z,23.00
2022-10-09T23:52:25.750Z,22.90
2022-10-09T23:54:54.423Z,22.90
2022-10-09T23:57:22.814Z,22.90
2022-10-09T23:59:51.055Z,22.90
